createdAt,value
2023-03-15T00:02:45.148Z,0
2023-03-15T00:07:51.408Z,0
2023-03-15T00:12:56.642Z,0
2023-03-15T00:18:02.728Z,0
2023-03-15T00:23:08.830Z,0
2023-03-15T00:28:14.916Z,0
2023-03-15T00:33:21.009Z,0
2023-03-15T00:38:27.102Z,0
2023-03-15T00:43:33.174Z,0
2023-03-15T00:48:39.323Z,0
2023-03-15T00:53:45.382Z,0
2023-03-15T00:58:50.463Z,0
2023-03-15T01:03:56.671Z,0
2023-03-15T01:09:02.669Z,0
2023-03-15T01:14:08.724Z,0
2023-03-15T01:19:14.821Z,0
2023-03-15T01:24:20.974Z,0
2023-03-15T01:29:27.004Z,0
2023-03-15T01:34:33.241Z,0
2023-03-15T01:39:39.172Z,0
2023-03-15T01:44:45.306Z,0
2023-03-15T01:49:51.373Z,0
2023-03-15T01:54:57.463Z,0
2023-03-15T02:00:03.545Z,0
2023-03-15T02:05:09.633Z,0
2023-03-15T02:10:15.713Z,0
2023-03-15T02:15:21.820Z,0
2023-03-15T02:20:27.890Z,0
2023-03-15T02:25:33.975Z,0
2023-03-15T02:30:40.064Z,0
2023-03-15T02:35:46.234Z,0
2023-03-15T02:40:52.251Z,0
2023-03-15T02:45:58.328Z,0
2023-03-15T02:51:04.448Z,0
2023-03-15T02:56:10.513Z,0
2023-03-15T03:01:16.601Z,0
2023-03-15T03:06:22.758Z,0
2023-03-15T03:11:28.778Z,0
2023-03-15T03:16:34.874Z,0
2023-03-15T03:21:40.950Z,0
2023-03-15T03:26:47.056Z,0
2023-03-15T03:31:53.131Z,0
2023-03-15T03:36:59.318Z,0
2023-03-15T03:42:05.304Z,0
2023-03-15T03:47:11.471Z,0
2023-03-15T03:52:17.513Z,0
2023-03-15T03:57:23.559Z,0
2023-03-15T04:02:29.663Z,0
2023-03-15T04:07:35.809Z,0
2023-03-15T04:12:41.964Z,0
2023-03-15T04:17:48.103Z,0
2023-03-15T04:22:54.265Z,0
2023-03-15T04:28:00.408Z,0
2023-03-15T04:33:06.558Z,0
2023-03-15T04:38:12.736Z,0
2023-03-15T04:43:18.908Z,0
2023-03-15T04:48:25.029Z,0
2023-03-15T04:53:31.169Z,0
2023-03-15T05:03:43.481Z,0
2023-03-15T05:08:49.621Z,0
2023-03-15T05:13:55.890Z,0
2023-03-15T05:19:02.157Z,0
2023-03-15T05:24:08.416Z,4
2023-03-15T05:29:14.700Z,12
2023-03-15T05:34:20.938Z,16
2023-03-15T05:39:27.220Z,16
2023-03-15T05:44:33.482Z,20
2023-03-15T05:49:39.735Z,24
2023-03-15T05:54:46.094Z,32
2023-03-15T05:59:52.330Z,36
2023-03-15T06:04:58.512Z,36
2023-03-15T06:10:04.785Z,36
2023-03-15T06:15:11.054Z,44
2023-03-15T06:20:17.528Z,24
2023-03-15T06:25:23.987Z,24
2023-03-15T06:30:30.456Z,20
2023-03-15T06:35:36.924Z,28
2023-03-15T06:40:43.499Z,52
2023-03-15T06:45:49.867Z,80
2023-03-15T06:50:56.352Z,68
2023-03-15T06:56:02.805Z,64
2023-03-15T07:01:09.270Z,100
2023-03-15T07:06:15.909Z,96
2023-03-15T07:11:22.316Z,68
2023-03-15T07:16:28.734Z,80
2023-03-15T07:21:35.148Z,100
2023-03-15T07:26:42.170Z,144
2023-03-15T07:31:49.207Z,140
2023-03-15T07:36:56.185Z,144
2023-03-15T07:42:03.186Z,148
2023-03-15T07:47:10.190Z,184
2023-03-15T07:52:17.219Z,160
2023-03-15T07:57:24.193Z,132
2023-03-15T08:02:31.363Z,140
2023-03-15T08:07:38.239Z,132
2023-03-15T08:12:45.201Z,156
2023-03-15T08:17:52.221Z,212
2023-03-15T08:22:59.229Z,176
2023-03-15T08:28:06.254Z,156
2023-03-15T08:33:14.057Z,188
2023-03-15T08:38:21.943Z,180
2023-03-15T08:43:29.736Z,168
2023-03-15T08:48:37.628Z,176
2023-03-15T08:53:45.470Z,184
2023-03-15T08:58:53.206Z,176
2023-03-15T09:04:01.041Z,252
2023-03-15T09:09:07.429Z,248
2023-03-15T09:14:13.531Z,272
2023-03-15T09:19:18.608Z,252
2023-03-15T09:24:24.775Z,240
2023-03-15T09:29:30.794Z,232
2023-03-15T09:34:36.887Z,232
2023-03-15T09:39:42.980Z,188
2023-03-15T09:44:49.080Z,284
2023-03-15T09:49:55.147Z,304
2023-03-15T09:55:01.241Z,248
2023-03-15T10:00:07.336Z,224
2023-03-15T10:05:13.450Z,280
2023-03-15T10:10:19.532Z,252
2023-03-15T10:15:25.598Z,220
2023-03-15T10:20:31.705Z,320
2023-03-15T10:25:37.773Z,416
2023-03-15T10:30:43.851Z,252
2023-03-15T10:35:50.098Z,112
2023-03-15T10:40:56.030Z,136
2023-03-15T10:46:02.221Z,188
2023-03-15T10:51:08.287Z,296
2023-03-15T10:56:14.300Z,436
2023-03-15T11:01:20.403Z,220
2023-03-15T11:06:25.510Z,224
2023-03-15T11:11:31.596Z,248
2023-03-15T11:16:37.689Z,248
2023-03-15T11:21:43.768Z,208
2023-03-15T11:26:49.862Z,204
2023-03-15T11:31:55.951Z,216
2023-03-15T11:37:02.049Z,208
2023-03-15T11:42:08.133Z,176
2023-03-15T11:47:14.217Z,200
2023-03-15T11:52:20.313Z,272
2023-03-15T11:57:26.404Z,316
2023-03-15T12:02:32.509Z,276
2023-03-15T12:07:38.582Z,144
2023-03-15T12:12:44.664Z,268
2023-03-15T12:17:50.752Z,264
2023-03-15T12:22:56.839Z,256
2023-03-15T12:28:03.083Z,280
2023-03-15T12:33:09.024Z,292
2023-03-15T12:38:14.141Z,240
2023-03-15T12:43:20.326Z,300
2023-03-15T12:48:26.299Z,400
2023-03-15T12:53:32.393Z,232
2023-03-15T12:58:38.474Z,1696
2023-03-15T13:03:44.567Z,2080
2023-03-15T13:08:50.681Z,600
2023-03-15T13:13:56.751Z,220
2023-03-15T13:19:02.833Z,276
2023-03-15T13:24:08.962Z,316
2023-03-15T13:29:15.007Z,396
2023-03-15T13:34:21.100Z,560
2023-03-15T13:39:27.271Z,176
2023-03-15T13:44:33.323Z,72
2023-03-15T13:49:39.470Z,132
2023-03-15T13:54:45.472Z,560
2023-03-15T13:59:51.569Z,2080
2023-03-15T14:04:57.627Z,2212
2023-03-15T14:10:03.726Z,2676
2023-03-15T14:15:09.916Z,2964
2023-03-15T14:20:15.979Z,3892
2023-03-15T14:25:22.037Z,3612
2023-03-15T14:30:28.100Z,1588
2023-03-15T14:35:34.175Z,2332
2023-03-15T14:40:40.323Z,1804
2023-03-15T14:45:46.357Z,1808
2023-03-15T14:50:52.448Z,1932
2023-03-15T14:55:58.536Z,1876
2023-03-15T15:01:04.631Z,1528
2023-03-15T15:06:10.732Z,1192
2023-03-15T15:11:16.798Z,448
2023-03-15T15:16:22.886Z,144
2023-03-15T15:21:29.021Z,540
2023-03-15T15:26:35.075Z,532
2023-03-15T15:31:41.152Z,288
2023-03-15T15:36:47.264Z,76
2023-03-15T15:41:53.401Z,92
2023-03-15T15:46:59.499Z,128
2023-03-15T15:52:05.788Z,108
2023-03-15T15:57:11.822Z,68
2023-03-15T16:02:17.969Z,56
2023-03-15T16:07:24.138Z,36
2023-03-15T16:12:30.248Z,40
2023-03-15T16:17:36.407Z,72
2023-03-15T16:22:42.558Z,184
2023-03-15T16:27:48.695Z,164
2023-03-15T16:32:54.849Z,72
2023-03-15T16:38:01.008Z,48
2023-03-15T16:43:07.160Z,40
2023-03-15T16:48:13.296Z,32
2023-03-15T16:53:19.568Z,28
2023-03-15T16:58:26.006Z,24
2023-03-15T17:03:32.137Z,12
2023-03-15T17:08:38.578Z,8
2023-03-15T17:13:44.622Z,4
2023-03-15T17:18:50.885Z,4
2023-03-15T17:23:57.450Z,0
2023-03-15T17:29:03.423Z,0
2023-03-15T17:34:09.689Z,0
2023-03-15T17:39:16.086Z,0
2023-03-15T17:44:22.324Z,0
2023-03-15T17:49:28.519Z,0
2023-03-15T17:54:34.818Z,0
2023-03-15T17:59:41.237Z,0
2023-03-15T18:04:47.804Z,0
2023-03-15T18:09:54.216Z,0
2023-03-15T18:15:00.624Z,0
2023-03-15T18:20:07.088Z,0
2023-03-15T18:25:13.557Z,0
2023-03-15T18:30:20.028Z,0
2023-03-15T18:35:26.502Z,0
2023-03-15T18:40:32.989Z,0
2023-03-15T18:45:39.457Z,0
2023-03-15T18:50:45.914Z,0
2023-03-15T18:55:52.360Z,0
2023-03-15T19:00:58.846Z,0
2023-03-15T19:06:05.929Z,0
2023-03-15T19:11:12.941Z,0
2023-03-15T19:16:19.882Z,0
2023-03-15T19:21:26.864Z,0
2023-03-15T19:26:33.870Z,0
2023-03-15T19:31:40.878Z,0
2023-03-15T19:36:47.878Z,0
2023-03-15T19:41:54.974Z,0
2023-03-15T19:47:01.901Z,0
2023-03-15T19:52:08.916Z,0
2023-03-15T19:57:15.896Z,0
2023-03-15T20:02:22.904Z,0
2023-03-15T20:07:29.910Z,0
2023-03-15T20:12:37.747Z,0
2023-03-15T20:17:45.581Z,0
2023-03-15T20:22:53.410Z,0
2023-03-15T20:28:01.244Z,0
2023-03-15T20:33:09.087Z,0
2023-03-15T20:38:16.909Z,0
2023-03-15T20:43:24.819Z,0
2023-03-15T20:48:32.543Z,0
2023-03-15T20:53:40.446Z,0
2023-03-15T20:58:48.203Z,0
2023-03-15T21:03:56.043Z,0
2023-03-15T21:09:03.906Z,0
2023-03-15T21:14:11.678Z,0
2023-03-15T21:19:19.546Z,0
2023-03-15T21:24:27.353Z,0
2023-03-15T21:29:35.172Z,0
2023-03-15T21:34:42.981Z,0
2023-03-15T21:39:50.801Z,0
2023-03-15T21:44:58.647Z,0
2023-03-15T21:50:06.482Z,0
2023-03-15T21:55:14.316Z,0
2023-03-15T22:00:22.118Z,0
2023-03-15T22:05:29.942Z,0
2023-03-15T22:10:37.765Z,0
2023-03-15T22:15:45.607Z,0
2023-03-15T22:20:53.477Z,0
2023-03-15T22:26:01.261Z,0
2023-03-15T22:31:09.081Z,0
2023-03-15T22:36:16.910Z,0
2023-03-15T22:41:24.777Z,0
2023-03-15T22:46:32.574Z,0
2023-03-15T22:51:40.402Z,0
2023-03-15T22:56:48.245Z,0
2023-03-15T23:01:56.052Z,0
2023-03-15T23:07:04.016Z,0
2023-03-15T23:12:11.713Z,0
2023-03-15T23:17:19.560Z,0
2023-03-15T23:27:35.254Z,0
2023-03-15T23:32:43.048Z,0
2023-03-15T23:37:50.866Z,0
2023-03-15T23:42:57.067Z,0
2023-03-15T23:48:03.165Z,0
2023-03-15T23:53:09.253Z,0
2023-03-15T23:58:15.422Z,0
